Agana Heights, GU (96910)

9:59 AM ChST on September 01, 2016 (GMT +1000)
Maite | | Change Station

Elev 140 ft 13.48 °N, 144.76 °E | Updated 13 seconds ago

Partly Cloudy
Partly Cloudy
86.5 °F
Feels Like 100 °F
N
2.0
Wind Variable Wind from NNW
Gusts 10.0 mph

Today
High -- | Low -- °F
--% Chance of Precip.
Yesterday
High -- | Low -- °F
Precip. -- in
Pressure 29.83 in
Visibility 10.0 miles
Clouds Few 2000 ft
Heat Index 100 °F
Dew Point 78 °F
Humidity 77%
Rainfall 0.00 in
Snow Depth Not available.
6:09 AM 6:32 PM
Waning Crescent, 0% visible
METAR PGUM 312354Z 32005KT 10SM FEW020 32/25 A2986 RMK AO2 SLP101 T03220250 10322 20278 50007
Pressure 29.83 in
Visibility 10.0 miles
Clouds Few 2000 ft
Heat Index 100 °F
Dew Point 78 °F
Humidity 77%
Rainfall 0.00 in
Snow Depth Not available.
6:09 AM 6:32 PM
Waning Crescent, 0% visible
METAR PGUM 312354Z 32005KT 10SM FEW020 32/25 A2986 RMK AO2 SLP101 T03220250 10322 20278 50007

10-Day Weather Forecast

Almanac

Astronomy

Sep. 01, 2016 Rise Set
Actual Time
Civil Twilight
Nautical Twilight
Astronomical Twilight
Moon
Length of Visible Light
Length of Day
Tomorrow will be .
, % of the Moon is Illuminated

Today's Extremes

State Highs State Lows

Community

WunderPhotos

Upload Photos

1,936,215 photos uploaded!

WunderBlog® & News

Nearby

Air Quality

  Air Quality AQ Index Pollutant
Not available.

Snow Depth

Station Depth Elevation

Earthquake Activity

City Distance Mag. Time & Date
Minimum magnitude displayed is 2.5.

Coastal Water Temperatures

Place Temperature

Stations

Nearby Weather Stations

Station Location Temp. Windchill Dew Point Humidity Wind Precip. Elev Updated Type
                   

Watches & Warnings

There are currently no watches in effect.